createdAt,value
2023-01-19T00:00:35.222Z,10.45
2023-01-19T00:03:04.307Z,12.48
2023-01-19T00:05:31.259Z,12.57
2023-01-19T00:08:14.424Z,11.15
2023-01-19T00:10:44.296Z,10.82
2023-01-19T00:13:11.264Z,13.43
2023-01-19T00:15:38.289Z,17.92
2023-01-19T00:18:05.654Z,10.63
2023-01-19T00:20:32.804Z,9.95
2023-01-19T00:23:00.238Z,12.80
2023-01-19T00:25:27.601Z,13.60
2023-01-19T00:27:55.226Z,12.00
2023-01-19T00:30:23.456Z,14.40
2023-01-19T00:32:50.255Z,13.10
2023-01-19T00:35:17.110Z,11.13
2023-01-19T00:37:46.605Z,12.38
2023-01-19T00:40:14.302Z,14.05
2023-01-19T00:42:41.172Z,12.80
2023-01-19T00:45:10.982Z,14.00
2023-01-19T00:47:39.373Z,12.07
2023-01-19T00:50:08.207Z,10.90
2023-01-19T00:52:35.042Z,14.38
2023-01-19T00:55:01.794Z,12.80
2023-01-19T00:57:29.513Z,13.27
2023-01-19T00:59:56.367Z,15.00
2023-01-19T01:02:23.469Z,16.42
2023-01-19T01:04:54.771Z,12.93
2023-01-19T01:07:22.735Z,11.00
2023-01-19T01:09:49.695Z,13.32
2023-01-19T01:12:16.917Z,11.75
2023-01-19T01:14:43.715Z,12.85
2023-01-19T01:17:11.600Z,10.20
2023-01-19T01:19:38.606Z,11.75
2023-01-19T01:22:05.792Z,12.95
2023-01-19T01:24:32.620Z,11.63
2023-01-19T01:26:59.381Z,13.82
2023-01-19T01:41:46.273Z,8.50
2023-01-19T01:44:51.576Z,12.77
2023-01-19T01:47:27.174Z,8.48
2023-01-19T01:50:19.042Z,13.32
2023-01-19T01:53:06.819Z,11.00
2023-01-19T01:55:41.214Z,10.45
2023-01-19T01:58:10.660Z,14.48
2023-01-19T02:00:57.672Z,10.32
2023-01-19T02:03:26.259Z,10.68
2023-01-19T02:05:59.198Z,13.75
2023-01-19T02:09:09.237Z,12.68
2023-01-19T02:11:54.903Z,14.45
2023-01-19T02:14:21.707Z,15.73
2023-01-19T02:16:48.630Z,11.30
2023-01-19T02:19:31.464Z,11.60
2023-01-19T02:22:19.742Z,12.70
2023-01-19T02:24:46.670Z,10.27
2023-01-19T02:27:13.593Z,12.68
2023-01-19T02:29:40.580Z,10.52
2023-01-19T02:32:07.689Z,13.65
2023-01-19T02:34:35.421Z,12.20
2023-01-19T02:37:08.444Z,13.30
2023-01-19T02:39:47.208Z,11.35
2023-01-19T02:42:22.310Z,12.68
2023-01-19T02:44:52.743Z,12.65
2023-01-19T02:47:19.778Z,10.75
2023-01-19T02:49:59.297Z,10.95
2023-01-19T02:52:27.233Z,11.75
2023-01-19T02:55:18.079Z,11.80
2023-01-19T02:58:13.289Z,12.77
2023-01-19T03:01:17.687Z,11.82
2023-01-19T03:04:16.586Z,14.48
2023-01-19T03:06:53.458Z,14.43
2023-01-19T03:09:38.231Z,12.20
2023-01-19T03:12:10.005Z,11.35
2023-01-19T03:14:44.096Z,12.43
2023-01-19T03:17:15.088Z,11.47
2023-01-19T03:19:44.071Z,11.75
2023-01-19T03:22:19.397Z,13.25
2023-01-19T03:24:47.729Z,10.63
2023-01-19T03:27:29.854Z,10.68
2023-01-19T03:30:02.108Z,10.77
2023-01-19T03:32:36.170Z,13.23
2023-01-19T03:35:09.782Z,12.27
2023-01-19T03:37:41.305Z,9.57
2023-01-19T03:40:09.451Z,11.57
2023-01-19T03:42:37.706Z,12.43
2023-01-19T03:45:05.619Z,9.30
2023-01-19T03:47:33.421Z,13.57
2023-01-19T03:50:03.904Z,13.27
2023-01-19T03:52:33.524Z,10.73
2023-01-19T03:55:02.251Z,15.80
2023-01-19T03:57:29.086Z,14.05
2023-01-19T03:59:56.805Z,12.82
2023-01-19T04:02:24.425Z,11.52
2023-01-19T04:04:51.408Z,10.48
2023-01-19T04:07:18.187Z,11.93
2023-01-19T04:09:44.988Z,12.43
2023-01-19T04:12:11.751Z,12.70
2023-01-19T04:14:38.737Z,12.98
2023-01-19T04:17:05.594Z,19.80
2023-01-19T04:19:32.392Z,12.10
2023-01-19T04:21:59.650Z,11.68
2023-01-19T04:24:27.085Z,9.20
2023-01-19T04:26:53.885Z,12.55
2023-01-19T04:29:20.633Z,13.15
2023-01-19T04:31:47.404Z,11.68
2023-01-19T04:34:14.164Z,11.98
2023-01-19T04:36:40.954Z,12.30
2023-01-19T04:39:09.061Z,9.65
2023-01-19T04:41:35.959Z,17.67
2023-01-19T04:44:03.091Z,14.05
2023-01-19T04:46:29.868Z,12.07
2023-01-19T04:48:56.704Z,11.35
2023-01-19T04:51:23.467Z,12.18
2023-01-19T04:53:50.245Z,15.07
2023-01-19T04:56:16.984Z,10.38
2023-01-19T04:58:43.814Z,9.55
2023-01-19T05:01:10.658Z,11.07
2023-01-19T05:03:37.580Z,11.13
2023-01-19T05:06:04.703Z,13.27
2023-01-19T05:08:31.474Z,14.50
2023-01-19T05:10:58.229Z,12.70
2023-01-19T05:13:25.045Z,11.55
2023-01-19T05:15:51.850Z,11.48
2023-01-19T05:18:18.694Z,10.27
2023-01-19T05:20:45.674Z,11.77
2023-01-19T05:23:12.458Z,10.55
2023-01-19T05:25:39.276Z,9.68
2023-01-19T05:28:06.204Z,10.90
2023-01-19T05:30:33.085Z,11.75
2023-01-19T05:33:00.452Z,9.75
2023-01-19T05:35:35.610Z,10.55
2023-01-19T05:38:02.906Z,8.50
2023-01-19T05:40:29.703Z,9.02
2023-01-19T05:43:00.644Z,11.68
2023-01-19T05:45:30.836Z,9.20
2023-01-19T05:47:57.627Z,9.35
2023-01-19T05:50:24.693Z,9.82
2023-01-19T05:52:54.706Z,12.60
2023-01-19T05:55:21.774Z,8.60
2023-01-19T05:57:48.527Z,12.40
2023-01-19T06:00:16.039Z,12.27
2023-01-19T06:02:43.497Z,11.60
2023-01-19T06:05:10.569Z,9.40
2023-01-19T06:07:37.406Z,9.80
2023-01-19T06:10:04.610Z,9.63
2023-01-19T06:12:32.398Z,9.75
2023-01-19T06:14:59.461Z,9.68
2023-01-19T06:17:26.244Z,9.10
2023-01-19T06:19:52.987Z,11.27
2023-01-19T06:22:19.761Z,8.40
2023-01-19T06:24:46.750Z,11.18
2023-01-19T06:27:13.851Z,9.65
2023-01-19T06:29:41.012Z,6.30
2023-01-19T06:32:07.776Z,9.38
2023-01-19T06:34:34.516Z,11.27
2023-01-19T06:37:01.302Z,10.52
2023-01-19T06:39:28.073Z,9.60
2023-01-19T06:41:54.842Z,7.43
2023-01-19T06:44:21.589Z,8.30
2023-01-19T06:46:49.011Z,11.85
2023-01-19T06:49:15.802Z,7.32
2023-01-19T06:51:42.581Z,9.63
2023-01-19T06:54:09.364Z,8.18
2023-01-19T06:56:36.134Z,8.52
2023-01-19T06:59:02.977Z,8.95
2023-01-19T07:01:29.862Z,9.63
2023-01-19T07:03:56.779Z,9.30
2023-01-19T07:06:23.671Z,18.60
2023-01-19T07:08:50.425Z,10.80
2023-01-19T07:11:22.250Z,7.95
2023-01-19T07:13:56.828Z,8.82
2023-01-19T07:16:23.766Z,11.93
2023-01-19T07:18:50.820Z,9.10
2023-01-19T07:21:18.039Z,13.80
2023-01-19T07:23:49.237Z,13.00
2023-01-19T07:26:18.518Z,7.32
2023-01-19T07:28:46.810Z,10.05
2023-01-19T07:31:15.489Z,11.13
2023-01-19T07:33:42.455Z,9.45
2023-01-19T07:36:09.619Z,9.82
2023-01-19T07:38:36.394Z,10.93
2023-01-19T07:41:08.408Z,14.32
2023-01-19T07:43:35.267Z,18.90
2023-01-19T07:46:05.650Z,7.20
2023-01-19T07:48:32.516Z,9.45
2023-01-19T07:51:13.052Z,8.75
2023-01-19T07:53:41.672Z,8.40
2023-01-19T07:56:09.061Z,9.00
2023-01-19T07:58:36.019Z,10.70
2023-01-19T08:01:08.506Z,8.55
2023-01-19T08:03:35.465Z,8.98
2023-01-19T08:06:03.338Z,8.05
2023-01-19T08:08:33.782Z,7.00
2023-01-19T08:11:00.628Z,11.30
2023-01-19T08:13:30.434Z,11.88
2023-01-19T08:15:57.431Z,9.10
2023-01-19T08:18:24.223Z,12.23
2023-01-19T08:20:51.299Z,13.20
2023-01-19T08:23:18.595Z,9.27
2023-01-19T08:25:45.958Z,8.15
2023-01-19T08:28:15.743Z,7.95
2023-01-19T08:30:44.789Z,11.68
2023-01-19T08:33:13.100Z,10.48
2023-01-19T08:35:43.192Z,12.95
2023-01-19T08:38:10.602Z,8.70
2023-01-19T08:40:40.219Z,12.45
2023-01-19T08:43:10.164Z,9.98
2023-01-19T08:45:41.514Z,9.50
2023-01-19T08:48:08.471Z,9.63
2023-01-19T08:50:35.357Z,7.10
2023-01-19T08:53:06.996Z,10.32
2023-01-19T08:55:36.333Z,11.25
2023-01-19T08:58:04.916Z,9.80
2023-01-19T09:00:34.229Z,9.60
2023-01-19T09:03:04.582Z,10.23
2023-01-19T09:05:37.317Z,8.50
2023-01-19T09:08:08.191Z,9.43
2023-01-19T09:10:36.128Z,9.75
2023-01-19T09:13:04.997Z,9.25
2023-01-19T09:15:35.616Z,10.25
2023-01-19T09:18:04.560Z,9.95
2023-01-19T09:20:31.521Z,8.85
2023-01-19T09:22:58.749Z,7.20
2023-01-19T09:25:25.967Z,8.35
2023-01-19T09:27:53.065Z,9.63
2023-01-19T09:30:20.198Z,7.15
2023-01-19T09:32:47.015Z,9.70
2023-01-19T09:35:13.954Z,7.55
2023-01-19T09:37:40.707Z,7.18
2023-01-19T09:40:11.518Z,7.78
2023-01-19T09:42:53.607Z,7.38
2023-01-19T09:45:34.287Z,6.22
2023-01-19T09:48:04.622Z,8.98
2023-01-19T09:50:38.133Z,7.43
2023-01-19T09:53:17.065Z,6.45
2023-01-19T09:55:43.898Z,9.85
2023-01-19T09:58:19.165Z,9.18
2023-01-19T10:00:55.451Z,7.65
2023-01-19T10:03:23.984Z,6.15
2023-01-19T10:06:03.628Z,6.63
2023-01-19T10:08:47.123Z,6.80
2023-01-19T10:11:51.998Z,8.27
2023-01-19T10:14:34.180Z,8.90
2023-01-19T10:17:31.517Z,5.55
2023-01-19T10:20:02.180Z,8.07
2023-01-19T10:22:29.265Z,6.95
2023-01-19T10:25:00.726Z,6.90
2023-01-19T10:27:31.432Z,6.40
2023-01-19T10:29:59.115Z,5.10
2023-01-19T10:32:30.381Z,9.63
2023-01-19T10:39:19.003Z,5.72
2023-01-19T10:41:53.632Z,6.72
2023-01-19T10:44:30.201Z,7.13
2023-01-19T10:46:59.449Z,12.70
2023-01-19T10:49:40.057Z,7.03
2023-01-19T10:52:20.297Z,5.55
2023-01-19T10:54:48.521Z,7.05
2023-01-19T10:57:30.447Z,5.55
2023-01-19T10:59:58.115Z,7.93
2023-01-19T11:02:31.327Z,7.20
2023-01-19T11:05:26.135Z,7.70
2023-01-19T11:07:52.995Z,6.45
2023-01-19T11:10:26.889Z,5.47
2023-01-19T11:13:12.538Z,6.05
2023-01-19T11:15:51.269Z,7.88
2023-01-19T11:18:33.069Z,8.68
2023-01-19T11:21:17.156Z,9.35
2023-01-19T11:23:51.480Z,7.13
2023-01-19T11:26:42.541Z,7.65
2023-01-19T11:29:36.246Z,9.48
2023-01-19T11:32:22.871Z,5.63
2023-01-19T11:34:50.056Z,6.28
2023-01-19T11:37:17.128Z,7.05
2023-01-19T11:39:53.660Z,5.68
2023-01-19T11:42:21.674Z,7.55
2023-01-19T11:45:17.095Z,6.90
2023-01-19T11:47:45.706Z,6.22
2023-01-19T11:50:19.771Z,7.50
2023-01-19T11:52:53.333Z,5.97
2023-01-19T11:55:41.036Z,7.18
2023-01-19T11:58:15.036Z,5.78
2023-01-19T12:00:57.890Z,5.97
2023-01-19T12:03:34.653Z,7.05
2023-01-19T12:06:19.626Z,5.60
2023-01-19T12:09:12.714Z,4.63
2023-01-19T12:11:47.779Z,6.38
2023-01-19T12:14:24.062Z,6.70
2023-01-19T12:16:53.361Z,4.45
2023-01-19T12:19:29.661Z,5.38
2023-01-19T12:21:56.737Z,4.78
2023-01-19T12:24:34.849Z,5.00
2023-01-19T12:27:11.154Z,4.80
2023-01-19T12:29:38.323Z,4.07
2023-01-19T12:32:14.416Z,4.47
2023-01-19T12:34:44.968Z,4.80
2023-01-19T12:37:39.979Z,4.15
2023-01-19T12:40:28.663Z,4.85
2023-01-19T12:43:05.200Z,3.88
2023-01-19T12:45:36.865Z,4.88
2023-01-19T12:48:05.008Z,4.63
2023-01-19T12:50:37.732Z,3.67
2023-01-19T12:53:16.395Z,3.40
2023-01-19T12:55:46.573Z,3.60
2023-01-19T12:58:22.545Z,4.40
2023-01-19T13:01:14.855Z,3.53
2023-01-19T13:04:12.488Z,4.47
2023-01-19T13:06:48.340Z,4.80
2023-01-19T13:09:33.051Z,3.58
2023-01-19T13:12:15.024Z,4.68
2023-01-19T13:14:43.107Z,5.28
2023-01-19T13:17:27.081Z,6.65
2023-01-19T13:20:21.635Z,4.82
2023-01-19T13:23:12.646Z,6.90
2023-01-19T13:25:40.091Z,4.57
2023-01-19T13:28:11.821Z,5.70
2023-01-19T13:30:54.258Z,5.15
2023-01-19T13:33:26.604Z,6.63
2023-01-19T13:35:58.596Z,8.40
2023-01-19T13:38:28.636Z,10.68
2023-01-19T13:40:56.542Z,9.68
2023-01-19T13:43:29.322Z,11.40
2023-01-19T13:45:56.592Z,10.38
2023-01-19T13:48:24.891Z,16.40
2023-01-19T13:51:04.738Z,11.45
2023-01-19T13:53:32.582Z,9.63
2023-01-19T13:56:20.601Z,9.82
2023-01-19T13:59:11.607Z,8.75
2023-01-19T14:01:41.960Z,10.05
2023-01-19T14:04:25.508Z,11.18
2023-01-19T14:06:55.586Z,11.73
2023-01-19T14:09:22.807Z,13.68
2023-01-19T14:12:11.968Z,12.93
2023-01-19T14:14:39.124Z,11.77
2023-01-19T14:17:27.568Z,13.75
2023-01-19T14:20:00.847Z,10.23
2023-01-19T14:22:44.601Z,10.00
2023-01-19T14:25:32.085Z,15.90
2023-01-19T14:28:39.399Z,13.43
2023-01-19T14:31:27.409Z,12.20
2023-01-19T14:33:58.417Z,11.63
2023-01-19T14:36:36.027Z,14.88
2023-01-19T14:39:03.470Z,12.65
2023-01-19T14:41:43.471Z,11.70
2023-01-19T14:44:11.676Z,10.82
2023-01-19T14:46:45.245Z,11.90
2023-01-19T14:49:30.315Z,11.73
2023-01-19T14:51:57.552Z,12.38
2023-01-19T14:54:40.499Z,8.85
2023-01-19T14:57:13.636Z,10.90
2023-01-19T14:59:41.444Z,7.90
2023-01-19T15:02:09.273Z,10.90
2023-01-19T15:04:36.176Z,10.10
2023-01-19T15:07:02.943Z,12.35
2023-01-19T15:09:29.813Z,11.18
2023-01-19T15:11:56.627Z,7.30
2023-01-19T15:14:23.423Z,9.32
2023-01-19T15:16:50.518Z,10.90
2023-01-19T15:19:18.453Z,8.60
2023-01-19T15:21:46.777Z,8.30
2023-01-19T15:24:15.896Z,9.82
2023-01-19T15:26:44.429Z,8.85
2023-01-19T15:29:32.345Z,12.48
2023-01-19T15:31:59.158Z,12.40
2023-01-19T15:34:25.920Z,12.70
2023-01-19T15:36:52.679Z,10.07
2023-01-19T15:39:19.463Z,12.35
2023-01-19T15:41:46.241Z,12.60
2023-01-19T15:44:13.056Z,10.18
2023-01-19T15:46:39.875Z,13.93
2023-01-19T15:49:06.740Z,12.13
2023-01-19T15:51:33.526Z,9.98
2023-01-19T15:54:00.320Z,13.85
2023-01-19T15:56:29.760Z,7.78
2023-01-19T15:58:58.030Z,12.02
2023-01-19T16:01:34.679Z,9.90
2023-01-19T16:04:04.892Z,8.18
2023-01-19T16:06:32.457Z,11.65
2023-01-19T16:09:00.978Z,10.18
2023-01-19T16:11:30.340Z,12.65
2023-01-19T16:13:57.412Z,11.68
2023-01-19T16:16:25.805Z,16.40
2023-01-19T16:18:52.685Z,12.23
2023-01-19T16:21:19.578Z,16.23
2023-01-19T16:23:46.579Z,15.57
2023-01-19T16:26:25.505Z,16.25
2023-01-19T16:28:52.384Z,15.15
2023-01-19T16:31:19.233Z,17.65
2023-01-19T16:33:45.995Z,12.43
2023-01-19T16:36:28.906Z,12.63
2023-01-19T16:39:03.207Z,15.77
2023-01-19T16:41:30.022Z,12.38
2023-01-19T16:44:00.277Z,18.88
2023-01-19T16:46:31.327Z,11.93
2023-01-19T16:49:13.603Z,16.23
2023-01-19T16:51:40.588Z,16.65
2023-01-19T16:54:07.970Z,17.88
2023-01-19T16:56:34.826Z,20.35
2023-01-19T16:59:01.620Z,17.92
2023-01-19T17:01:29.258Z,16.70
2023-01-19T17:03:56.679Z,22.52
2023-01-19T17:06:24.426Z,20.92
2023-01-19T17:08:52.730Z,16.77
2023-01-19T17:11:23.561Z,16.80
2023-01-19T17:13:54.559Z,14.80
2023-01-19T17:16:22.600Z,18.30
2023-01-19T17:18:49.893Z,19.45
2023-01-19T17:21:20.049Z,16.58
2023-01-19T17:23:50.593Z,16.63
2023-01-19T17:26:18.318Z,30.30
2023-01-19T17:28:45.845Z,21.77
2023-01-19T17:31:18.622Z,16.98
2023-01-19T17:33:48.926Z,22.17
2023-01-19T17:36:22.580Z,21.88
2023-01-19T17:38:51.912Z,19.30
2023-01-19T17:41:22.495Z,20.27
2023-01-19T17:43:50.543Z,19.05
2023-01-19T17:46:19.953Z,18.38
2023-01-19T17:49:03.520Z,15.07
2023-01-19T17:51:31.366Z,13.05
2023-01-19T17:53:58.869Z,11.15
2023-01-19T17:56:30.229Z,17.02
2023-01-19T17:58:58.692Z,12.65
2023-01-19T18:01:29.304Z,24.40
2023-01-19T18:03:57.112Z,16.63
2023-01-19T18:06:23.950Z,15.52
2023-01-19T18:08:51.289Z,15.88
2023-01-19T18:11:20.337Z,16.65
2023-01-19T18:13:49.118Z,18.95
2023-01-19T18:16:21.587Z,18.73
2023-01-19T18:18:49.643Z,25.25
2023-01-19T18:21:17.207Z,17.50
2023-01-19T18:23:45.110Z,16.95
2023-01-19T18:26:19.575Z,18.30
2023-01-19T18:28:47.885Z,22.40
2023-01-19T18:31:18.244Z,18.20
2023-01-19T18:33:45.323Z,28.40
2023-01-19T18:36:13.427Z,22.45
2023-01-19T18:38:40.490Z,21.25
2023-01-19T18:41:13.782Z,16.75
2023-01-19T18:43:41.002Z,20.95
2023-01-19T18:46:08.393Z,18.20
2023-01-19T18:48:37.157Z,19.67
2023-01-19T18:51:09.300Z,21.35
2023-01-19T18:53:36.773Z,26.30
2023-01-19T18:56:04.692Z,20.92
2023-01-19T18:58:33.107Z,18.88
2023-01-19T19:01:01.020Z,19.23
2023-01-19T19:03:28.521Z,27.73
2023-01-19T19:05:55.829Z,24.00
2023-01-19T19:08:22.681Z,20.58
2023-01-19T19:10:49.453Z,22.70
2023-01-19T19:13:17.633Z,27.30
2023-01-19T19:15:44.555Z,19.38
2023-01-19T19:18:13.645Z,24.52
2023-01-19T19:20:42.011Z,19.40
2023-01-19T19:23:10.064Z,28.02
2023-01-19T19:25:37.409Z,23.23
2023-01-19T19:28:04.439Z,27.45
2023-01-19T19:30:34.217Z,25.92
2023-01-19T19:33:01.066Z,23.67
2023-01-19T19:35:27.896Z,31.70
2023-01-19T19:37:57.382Z,22.10
2023-01-19T19:40:26.532Z,22.83
2023-01-19T19:42:53.892Z,24.42
2023-01-19T19:45:20.721Z,30.67
2023-01-19T19:47:47.636Z,28.65
2023-01-19T19:50:14.986Z,24.98
2023-01-19T19:52:42.589Z,24.10
2023-01-19T19:55:10.947Z,28.98
2023-01-19T19:57:37.845Z,26.33
2023-01-19T20:00:06.203Z,23.90
2023-01-19T20:02:33.020Z,25.90
2023-01-19T20:04:59.867Z,27.33
2023-01-19T20:07:26.646Z,31.92
2023-01-19T20:09:54.968Z,32.30
2023-01-19T20:12:22.094Z,31.33
2023-01-19T20:14:48.880Z,29.20
2023-01-19T20:17:15.704Z,27.35
2023-01-19T20:19:43.681Z,28.77
2023-01-19T20:22:10.464Z,31.13
2023-01-19T20:24:37.214Z,33.95
2023-01-19T20:27:04.105Z,31.48
2023-01-19T20:29:30.963Z,34.35
2023-01-19T20:31:57.884Z,43.63
2023-01-19T20:34:31.451Z,39.17
2023-01-19T20:37:01.253Z,36.13
2023-01-19T20:39:34.606Z,43.42
2023-01-19T20:42:02.344Z,39.67
2023-01-19T20:44:29.125Z,39.83
2023-01-19T20:46:56.509Z,41.15
2023-01-19T20:49:23.708Z,43.92
2023-01-19T20:51:51.883Z,50.45
2023-01-19T20:54:22.281Z,41.33
2023-01-19T20:56:49.159Z,42.13
2023-01-19T20:59:16.421Z,41.13
2023-01-19T21:01:43.794Z,43.30
2023-01-19T21:04:11.548Z,42.30
2023-01-19T21:06:39.191Z,46.17
2023-01-19T21:09:06.856Z,46.65
2023-01-19T21:11:33.685Z,45.67
2023-01-19T21:14:00.490Z,48.10
2023-01-19T21:16:30.659Z,46.53
2023-01-19T21:18:57.709Z,53.40
2023-01-19T21:21:30.948Z,50.10
2023-01-19T21:24:00.825Z,42.78
2023-01-19T21:26:29.737Z,46.42
2023-01-19T21:28:58.515Z,41.58
2023-01-19T21:31:27.721Z,47.65
2023-01-19T21:33:55.743Z,42.55
2023-01-19T21:36:23.376Z,48.10
2023-01-19T21:38:55.374Z,46.28
2023-01-19T21:41:22.211Z,54.75
2023-01-19T21:43:48.978Z,49.55
2023-01-19T21:46:22.684Z,49.83
2023-01-19T21:48:49.672Z,46.35
2023-01-19T21:51:16.484Z,52.03
2023-01-19T21:53:43.330Z,50.72
2023-01-19T21:56:11.426Z,41.25
2023-01-19T21:58:38.644Z,44.47
2023-01-19T22:01:13.660Z,47.35
2023-01-19T22:03:41.966Z,51.00
2023-01-19T22:06:14.369Z,44.42
2023-01-19T22:08:41.976Z,42.30
2023-01-19T22:11:12.143Z,50.15
2023-01-19T22:13:39.789Z,52.15
2023-01-19T22:16:10.344Z,52.10
2023-01-19T22:18:40.007Z,60.35
2023-01-19T22:21:21.591Z,51.10
2023-01-19T22:23:53.916Z,55.58
2023-01-19T22:26:21.110Z,47.33
2023-01-19T22:28:48.619Z,55.67
2023-01-19T22:31:18.749Z,51.28
2023-01-19T22:33:46.032Z,46.92
2023-01-19T22:36:21.660Z,55.35
2023-01-19T22:38:57.919Z,55.60
2023-01-19T22:41:29.344Z,51.22
2023-01-19T22:44:01.818Z,53.63
2023-01-19T22:46:33.901Z,52.25
2023-01-19T22:49:01.387Z,45.70
2023-01-19T22:51:30.338Z,50.42
2023-01-19T22:54:29.825Z,55.63
2023-01-19T22:56:56.594Z,52.75
2023-01-19T22:59:23.337Z,50.65
2023-01-19T23:01:50.356Z,50.17
2023-01-19T23:04:17.172Z,56.90
2023-01-19T23:06:46.743Z,50.60
2023-01-19T23:09:14.747Z,47.08
2023-01-19T23:11:44.921Z,56.08
2023-01-19T23:14:15.897Z,53.90
2023-01-19T23:16:42.686Z,52.05
2023-01-19T23:19:11.697Z,56.03
2023-01-19T23:21:38.467Z,50.42
2023-01-19T23:24:05.510Z,55.92
2023-01-19T23:26:37.951Z,54.50
2023-01-19T23:29:09.998Z,57.28
2023-01-19T23:31:39.417Z,56.30
2023-01-19T23:34:09.542Z,56.28
2023-01-19T23:36:39.086Z,56.88
2023-01-19T23:39:12.227Z,57.80
2023-01-19T23:41:39.083Z,59.85
2023-01-19T23:44:05.873Z,48.85
2023-01-19T23:46:32.887Z,55.75
2023-01-19T23:48:59.735Z,51.17
2023-01-19T23:51:29.959Z,50.33
2023-01-19T23:53:58.249Z,51.95
2023-01-19T23:56:34.573Z,47.97
2023-01-19T23:59:05.613Z,49.70
